Time;durP1;ratioP1;P1;durP2;ratioP2;P2;SDS_P1;SDS_P2;PMS_P1;PMS_P2;Temp;Humidity;BMP_temperature;BMP_pressure;BME280_temperature;BME280_humidity;BME280_pressure;Samples;Min_cycle;Max_cycle;Signal;HPM_P1;HPM_P2
2021/07/13 03:31:10;;;;;;;6.77;3.17;;;;;;;23.78;64.05;97965.47;8052471;23;20254;-82
2021/07/13 03:34:31;;;;;;;4.13;2.60;;;;;;;23.54;64.86;97959.41;6904713;28;20294;-81
2021/07/13 03:37:54;;;;;;;5.40;2.80;;;;;;;23.24;64.88;97929.81;6904569;28;20290;-83
2021/07/13 03:41:16;;;;;;;4.73;2.83;;;;;;;23.15;66.20;97950.88;6905410;28;20231;-82
2021/07/13 03:44:37;;;;;;;3.50;2.47;;;;;;;23.39;64.91;97934.16;6905933;28;20214;-82
2021/07/13 03:48:01;;;;;;;6.30;5.70;;;;;;;23.63;64.57;97923.72;6905986;28;20215;-82
2021/07/13 03:51:37;;;;;;;3.50;2.60;;;;;;;23.67;63.55;97913.72;6905380;28;20221;-81
2021/07/13 03:54:58;;;;;;;5.87;2.90;;;;;;;23.43;64.81;97902.19;6906104;28;20227;-81
2021/07/13 03:58:20;;;;;;;3.00;2.70;;;;;;;23.71;63.96;97918.28;6905258;28;20239;-84
2021/07/13 04:01:41;;;;;;;3.90;2.87;;;;;;;23.20;64.71;97854.53;6904981;28;20227;-83
2021/07/13 04:05:06;;;;;;;7.33;2.77;;;;;;;23.67;63.89;97908.22;6904538;28;20207;-81
2021/07/13 04:08:27;;;;;;;2.63;2.43;;;;;;;23.56;64.48;97896.66;6902486;28;20215;-81
2021/07/13 04:11:49;;;;;;;2.80;2.50;;;;;;;23.43;63.57;97902.19;6894945;28;20228;-82
2021/07/13 04:15:13;;;;;;;3.30;2.63;;;;;;;23.70;63.55;97921.34;6884359;28;20211;-81
2021/07/13 04:18:34;;;;;;;4.27;2.80;;;;;;;23.75;63.35;97916.56;6888909;28;20241;-81
2021/07/13 04:21:57;;;;;;;4.90;2.37;;;;;;;23.41;63.92;97904.41;6893844;28;20226;-80
2021/07/13 04:25:19;;;;;;;4.07;2.77;;;;;;;23.31;64.42;97866.13;6873715;28;20226;-81
2021/07/13 04:28:40;;;;;;;5.23;2.70;;;;;;;23.91;63.09;97906.84;6875096;28;20214;-82
2021/07/13 04:32:02;;;;;;;3.20;2.27;;;;;;;23.70;63.16;97910.34;6879551;28;20234;-80
2021/07/13 04:35:24;;;;;;;5.10;2.63;;;;;;;23.37;63.14;97893.22;6902471;28;20238;-82
2021/07/13 04:38:47;;;;;;;2.30;2.10;;;;;;;23.01;63.77;97842.03;6897817;28;20227;-83
2021/07/13 04:42:09;;;;;;;2.87;2.17;;;;;;;23.30;62.88;97867.28;6896719;28;20231;-81
2021/07/13 04:45:31;;;;;;;2.40;2.20;;;;;;;23.04;62.84;97885.38;6884195;28;20234;-81
2021/07/13 04:48:53;;;;;;;3.37;2.00;;;;;;;23.35;62.71;97869.88;6868514;28;20727;-81
2021/07/13 04:52:14;;;;;;;4.27;2.27;;;;;;;23.53;62.76;97894.50;6869312;28;20227;-80
2021/07/13 04:55:38;;;;;;;3.20;2.37;;;;;;;23.52;63.33;97912.13;6870253;28;20216;-81
2021/07/13 04:58:59;;;;;;;3.17;2.13;;;;;;;23.33;64.42;97905.97;6871601;28;20720;-80
2021/07/13 05:02:21;;;;;;;4.03;2.23;;;;;;;23.73;63.59;97905.03;6896326;28;20282;-81
2021/07/13 05:05:42;;;;;;;3.90;2.20;;;;;;;23.70;63.63;97891.06;6898583;28;20209;-81
2021/07/13 05:09:04;;;;;;;3.63;2.47;;;;;;;23.99;62.85;97891.50;6897222;28;20293;-82
2021/07/13 05:12:27;;;;;;;3.37;2.50;;;;;;;23.72;63.81;97899.84;6903279;28;20254;-83
2021/07/13 05:15:49;;;;;;;2.73;2.10;;;;;;;23.79;63.36;97901.03;6903671;28;20213;-81
2021/07/13 05:19:13;;;;;;;3.40;2.20;;;;;;;23.49;64.10;97874.22;6903265;28;20256;-80
2021/07/13 05:22:35;;;;;;;2.40;1.97;;;;;;;23.82;62.82;97892.16;6903028;28;20848;-81
2021/07/13 05:25:56;;;;;;;3.87;2.50;;;;;;;23.86;62.45;97878.59;6903170;28;20208;-82
2021/07/13 05:29:19;;;;;;;5.00;2.50;;;;;;;24.19;61.09;97897.31;6900876;28;20241;-80
2021/07/13 05:32:41;;;;;;;2.83;2.03;;;;;;;24.01;62.24;97906.59;6900565;28;20614;-80
2021/07/13 05:36:03;;;;;;;3.60;2.40;;;;;;;24.19;61.85;97889.03;6901973;28;20203;-80
2021/07/13 05:39:24;;;;;;;2.50;2.30;;;;;;;24.47;62.25;97881.41;6902048;28;20238;-80
2021/07/13 05:42:46;;;;;;;3.03;2.33;;;;;;;24.38;61.33;97883.34;6903323;28;20245;-81
2021/07/13 05:46:09;;;;;;;4.33;2.40;;;;;;;24.51;60.32;97882.44;6900443;28;20227;-82
2021/07/13 05:49:31;;;;;;;3.20;2.20;;;;;;;24.91;59.55;97876.66;6900977;28;20211;-80
2021/07/13 05:52:52;;;;;;;4.30;2.57;;;;;;;24.57;59.18;97865.47;6896717;28;20230;-81
2021/07/13 05:56:14;;;;;;;3.90;2.50;;;;;;;24.76;59.79;97868.78;6875515;28;20205;-81
2021/07/13 05:59:36;;;;;;;5.20;2.30;;;;;;;24.67;59.25;97856.91;6874075;28;20234;-82
2021/07/13 06:02:59;;;;;;;3.40;2.37;;;;;;;24.93;59.10;97885.41;6881913;28;20785;-86
2021/07/13 06:06:20;;;;;;;3.10;2.50;;;;;;;24.97;59.31;97896.59;6900169;28;20665;-80
2021/07/13 06:09:42;;;;;;;3.10;2.40;;;;;;;25.05;59.26;97901.31;6908220;28;20214;-80
2021/07/13 06:13:04;;;;;;;3.03;2.33;;;;;;;25.07;58.35;97904.59;6907365;28;20827;-80
2021/07/13 06:16:26;;;;;;;4.10;2.53;;;;;;;24.85;58.09;97875.16;6907623;28;20208;-81
2021/07/13 06:19:49;;;;;;;3.70;2.90;;;;;;;24.84;58.32;97890.06;6896952;28;20238;-79
2021/07/13 06:23:13;;;;;;;3.67;2.50;;;;;;;24.87;59.11;97914.25;6895973;28;20228;-81
2021/07/13 06:26:35;;;;;;;2.50;2.30;;;;;;;24.62;58.60;97834.19;6900804;28;20207;-81
2021/07/13 06:29:57;;;;;;;3.80;2.50;;;;;;;24.36;59.72;97869.06;6915190;28;20207;-83
2021/07/13 06:33:18;;;;;;;3.00;2.60;;;;;;;24.65;59.74;97883.19;6918043;28;20877;-82
2021/07/13 06:36:41;;;;;;;5.20;2.67;;;;;;;24.51;58.79;97813.53;6896509;28;20209;-82
2021/07/13 06:40:05;;;;;;;5.40;3.10;;;;;;;24.12;59.90;97814.31;6887611;28;20246;-83
2021/07/13 06:43:27;;;;;;;3.97;3.10;;;;;;;24.29;60.33;97843.88;6874688;28;20234;-80
2021/07/13 06:46:48;;;;;;;3.33;3.00;;;;;;;24.17;60.22;97857.44;6885768;28;20217;-81
2021/07/13 06:50:11;;;;;;;3.90;3.27;;;;;;;24.52;59.58;97860.06;6901842;28;20209;-82
2021/07/13 06:53:34;;;;;;;3.23;3.03;;;;;;;24.38;61.09;97897.13;6909293;28;20202;-82
2021/07/13 06:56:56;;;;;;;6.57;3.23;;;;;;;24.47;59.60;97906.22;6907167;28;20213;-79
2021/07/13 07:00:18;;;;;;;4.50;3.43;;;;;;;24.60;60.40;97917.19;6906430;28;20235;-79
2021/07/13 07:03:39;;;;;;;3.50;3.20;;;;;;;24.57;60.16;97928.03;6905911;28;20201;-79
2021/07/13 07:07:01;;;;;;;5.40;3.97;;;;;;;24.34;61.18;97913.47;6906926;28;20226;-79
2021/07/13 07:10:24;;;;;;;4.37;3.57;;;;;;;24.54;60.71;97914.88;6905512;28;20222;-79
2021/07/13 07:13:46;;;;;;;5.10;3.23;;;;;;;25.06;58.24;97964.47;6884674;28;20204;-77
2021/07/13 07:17:07;;;;;;;4.60;2.87;;;;;;;24.69;59.17;97970.44;6903866;28;20203;-78
2021/07/13 07:20:29;;;;;;;3.20;2.90;;;;;;;24.61;59.59;97973.16;6903810;28;20224;-78
2021/07/13 07:23:51;;;;;;;7.83;3.63;;;;;;;24.27;61.79;97959.94;6901644;28;20220;-79
2021/07/13 07:27:14;;;;;;;3.70;3.20;;;;;;;23.93;62.74;97947.81;6899801;28;20197;-79
2021/07/13 07:30:36;;;;;;;4.03;3.50;;;;;;;24.29;62.55;97934.81;6900097;28;20230;-79
2021/07/13 07:33:57;;;;;;;4.30;3.90;;;;;;;24.27;62.97;97929.63;6892272;28;20587;-79
2021/07/13 07:37:19;;;;;;;4.97;4.03;;;;;;;24.20;63.21;97928.44;6900737;28;20213;-79
2021/07/13 07:40:41;;;;;;;4.43;4.03;;;;;;;24.31;62.97;97944.38;6899612;28;20240;-80
2021/07/13 07:44:04;;;;;;;4.93;4.27;;;;;;;24.52;62.87;97956.53;6901172;28;20578;-81
2021/07/13 07:47:26;;;;;;;4.83;3.70;;;;;;;24.53;60.99;97927.84;6900321;28;20208;-81
2021/07/13 07:50:47;;;;;;;8.73;4.37;;;;;;;24.59;61.81;97956.94;6901278;28;20226;-81
2021/07/13 07:54:11;;;;;;;4.57;4.17;;;;;;;24.66;61.70;97937.19;6902107;28;20215;-81
2021/07/13 07:57:33;;;;;;;5.50;4.27;;;;;;;24.65;61.87;97943.84;6900406;28;20197;-81
2021/07/13 08:00:56;;;;;;;6.57;4.37;;;;;;;24.54;62.08;97948.75;6881936;28;20230;-81
2021/07/13 08:04:18;;;;;;;5.27;4.57;;;;;;;23.61;64.73;97912.22;6883363;28;20213;-83
2021/07/13 08:07:39;;;;;;;6.87;4.90;;;;;;;23.66;65.50;97899.16;6901762;28;20223;-81
2021/07/13 08:11:01;;;;;;;7.13;4.60;;;;;;;24.45;64.44;97936.06;6899553;28;20223;-81
2021/07/13 08:14:22;;;;;;;6.53;5.70;;;;;;;24.29;64.33;97959.59;6891329;28;20212;-81
2021/07/13 08:17:46;;;;;;;8.20;6.40;;;;;;;24.46;64.21;97949.53;6897298;28;20212;-81
2021/07/13 08:21:07;;;;;;;8.03;6.83;;;;;;;24.28;64.46;97944.19;6893716;28;20229;-81
2021/07/13 08:24:29;;;;;;;8.83;7.13;;;;;;;24.48;64.41;97958.28;6894381;28;20211;-81
2021/07/13 08:27:51;;;;;;;8.07;6.73;;;;;;;24.44;64.21;97948.22;6889861;28;20213;-79
2021/07/13 08:31:12;;;;;;;7.43;6.73;;;;;;;24.29;64.02;97952.16;6873132;28;20733;-80
2021/07/13 08:34:36;;;;;;;8.07;6.80;;;;;;;24.44;63.96;97921.47;6896287;28;20204;-79
2021/07/13 08:37:57;;;;;;;7.10;6.13;;;;;;;24.43;64.02;97936.34;6870588;28;20221;-79
2021/07/13 08:41:20;;;;;;;5.73;5.13;;;;;;;24.25;64.24;97923.59;6869216;28;20242;-79
2021/07/13 08:44:42;;;;;;;4.87;4.07;;;;;;;23.70;64.93;97891.91;6878285;28;20220;-78
2021/07/13 08:48:04;;;;;;;5.13;3.70;;;;;;;24.11;64.94;97942.16;6896404;28;20207;-76
2021/07/13 08:51:27;;;;;;;4.30;3.40;;;;;;;24.26;63.26;97933.50;6903742;28;20727;-78
2021/07/13 08:54:49;;;;;;;7.60;3.43;;;;;;;24.58;62.93;97962.75;6904937;28;20211;-77
2021/07/13 08:58:13;;;;;;;4.70;3.60;;;;;;;24.23;63.80;97964.44;6898106;28;20214;-77
2021/07/13 09:01:35;;;;;;;4.57;3.80;;;;;;;24.03;64.52;97931.06;6903992;28;20324;-77
2021/07/13 09:04:57;;;;;;;4.63;4.10;;;;;;;23.93;64.59;97969.84;6891448;28;20219;-77
2021/07/13 09:08:24;;;;;;;5.63;3.53;;;;;;;23.99;64.10;97935.56;6901211;28;20561;-77
2021/07/13 09:11:45;;;;;;;5.67;3.77;;;;;;;24.32;63.45;97979.09;6905052;28;20234;-77
2021/07/13 09:15:08;;;;;;;6.53;3.80;;;;;;;24.12;63.59;97968.56;6904999;28;20305;-78
2021/07/13 09:18:31;;;;;;;4.70;3.87;;;;;;;24.08;63.57;97972.25;6904184;28;20222;-78
2021/07/13 09:21:55;;;;;;;4.20;3.80;;;;;;;24.30;62.68;97980.53;6903899;28;20240;-77
2021/07/13 09:25:32;;;;;;;5.67;3.93;;;;;;;24.46;62.71;98001.06;6904535;28;20212;-78
2021/07/13 09:28:54;;;;;;;6.83;4.50;;;;;;;24.12;64.05;97963.06;6899375;28;20222;-77
2021/07/13 09:32:21;;;;;;;6.30;4.50;;;;;;;24.35;63.41;97964.69;6904470;28;20231;-80
2021/07/13 09:36:01;;;;;;;3.23;2.43;;;;;;;22.81;65.32;97963.38;6905593;28;20200;-82
2021/07/13 09:39:24;;;;;;;4.90;2.03;;;;;;;22.58;67.13;97984.41;6905596;28;20202;-83
2021/07/13 09:42:48;;;;;;;1.83;1.73;;;;;;;23.03;65.09;97994.59;6907301;28;20221;-83
2021/07/13 09:46:30;;;;;;;3.47;1.70;;;;;;;23.14;65.25;98023.50;6905342;28;20211;-83
2021/07/13 09:49:51;;;;;;;3.67;1.23;;;;;;;22.16;67.21;98030.41;6876465;28;20952;-83
2021/07/13 09:53:16;;;;;;;2.67;1.27;;;;;;;22.04;67.49;98028.13;6876276;28;20233;-83
2021/07/13 09:56:39;;;;;;;1.87;1.07;;;;;;;21.85;67.67;98034.72;6875616;28;20201;-83
2021/07/13 10:00:02;;;;;;;1.50;1.40;;;;;;;22.60;66.55;98088.53;6872446;28;20231;-82
2021/07/13 10:03:23;;;;;;;1.13;1.07;;;;;;;22.17;67.55;98117.16;6885236;28;20227;-83
2021/07/13 10:06:46;;;;;;;3.57;1.20;;;;;;;21.77;68.25;98074.63;6900781;28;20211;-83
2021/07/13 10:10:14;;;;;;;1.77;0.90;;;;;;;21.99;68.28;98058.41;6900028;28;20216;-83
2021/07/13 10:13:37;;;;;;;1.00;1.00;;;;;;;21.98;67.30;98021.09;6890925;28;20204;-83
2021/07/13 10:17:02;;;;;;;1.07;0.93;;;;;;;22.00;67.63;98042.72;6899146;28;20213;-83
2021/07/13 10:20:24;;;;;;;0.60;0.60;;;;;;;22.22;67.09;98040.22;6898832;28;20230;-83
2021/07/13 10:23:47;;;;;;;1.27;1.07;;;;;;;21.82;66.66;98027.06;6899937;28;20206;-82
2021/07/13 10:27:13;;;;;;;2.67;1.20;;;;;;;22.43;66.26;98036.88;6899015;28;20218;-81
2021/07/13 10:30:39;;;;;;;0.70;0.70;;;;;;;21.94;66.72;98044.75;6881951;28;20240;-85
2021/07/13 10:34:42;;;;;;;1.43;0.83;;;;;;;22.43;65.41;98052.56;6871083;28;20195;-84
2021/07/13 10:38:23;;;;;;;0.77;0.77;;;;;;;22.98;64.13;98088.16;6887143;28;20231;-83
2021/07/13 10:41:45;;;;;;;0.77;0.77;;;;;;;22.64;64.76;98093.13;6899297;28;20236;-82
2021/07/13 10:45:13;;;;;;;0.90;0.90;;;;;;;22.68;64.31;98124.41;6898718;28;20202;-88
2021/07/13 10:48:35;;;;;;;1.43;0.73;;;;;;;22.31;64.51;98151.84;6888316;28;20328;-81
2021/07/13 10:51:56;;;;;;;1.00;0.60;;;;;;;22.91;61.95;98150.13;6895895;28;20224;-83
2021/07/13 10:56:03;;;;;;;0.83;0.80;;;;;;;22.53;63.10;98159.56;6896464;28;20206;-85
2021/07/13 10:59:26;;;;;;;1.83;0.97;;;;;;;22.60;62.00;98166.28;6792221;28;20222;-85
2021/07/13 11:02:47;;;;;;;0.70;0.70;;;;;;;21.20;63.42;98104.88;6896432;28;20239;-84
2021/07/13 11:06:10;;;;;;;0.70;0.70;;;;;;;21.55;62.48;98081.72;6895766;28;20218;-85
2021/07/13 11:09:36;;;;;;;1.37;0.70;;;;;;;22.06;61.74;98115.69;6883747;28;20205;-85
2021/07/13 11:12:58;;;;;;;2.10;0.90;;;;;;;21.10;64.51;98093.19;6896926;28;20233;-85
2021/07/13 11:16:24;;;;;;;0.83;0.60;;;;;;;21.79;62.25;98145.69;6896823;28;20217;-85
2021/07/13 11:19:46;;;;;;;0.60;0.60;;;;;;;23.02;59.75;98146.13;6881011;28;20197;-85
2021/07/13 11:23:07;;;;;;;2.73;0.70;;;;;;;22.60;59.28;98146.25;6867602;28;20236;-85
2021/07/13 11:26:29;;;;;;;0.63;0.63;;;;;;;22.48;59.79;98112.91;6869043;28;20222;-85
2021/07/13 11:34:03;;;;;;;3.30;1.00;;;;;;;22.32;60.99;98175.47;6898220;23;20236;-85
2021/07/13 11:37:25;;;;;;;1.70;0.70;;;;;;;22.10;60.98;98161.47;6896083;28;20239;-83
2021/07/13 11:40:47;;;;;;;0.50;0.50;;;;;;;22.31;60.72;98189.50;6895741;28;20624;-85
2021/07/13 11:44:10;;;;;;;0.60;0.60;;;;;;;21.97;60.96;98164.94;6896515;28;20224;-82
2021/07/13 11:47:32;;;;;;;1.80;0.70;;;;;;;22.40;61.35;98179.47;6899763;28;20689;-82
2021/07/13 11:50:57;;;;;;;0.70;0.70;;;;;;;22.84;59.31;98180.75;6898479;28;20233;-82
2021/07/13 11:54:19;;;;;;;0.73;0.70;;;;;;;22.47;59.91;98164.28;6899625;28;20201;-82
2021/07/13 11:57:50;;;;;;;1.00;0.83;;;;;;;22.38;59.70;98168.78;6900796;28;20219;-82
2021/07/13 12:01:18;;;;;;;0.80;0.80;;;;;;;22.38;60.15;98170.72;6899197;28;20605;-82
2021/07/13 12:04:41;;;;;;;2.03;1.23;;;;;;;22.35;58.59;98163.03;6871731;28;20208;-82
2021/07/13 12:08:05;;;;;;;1.07;1.07;;;;;;;22.45;59.11;98168.44;6872503;28;20206;-81
2021/07/13 12:11:28;;;;;;;1.97;0.80;;;;;;;22.55;59.72;98177.34;6873707;28;20230;-82
2021/07/13 12:14:53;;;;;;;1.43;0.70;;;;;;;23.30;57.72;98172.63;6874186;28;20213;-82
2021/07/13 12:18:15;;;;;;;2.93;1.00;;;;;;;23.07;56.74;98182.56;6874505;28;20581;-82
2021/07/13 12:21:40;;;;;;;1.60;1.10;;;;;;;22.43;60.43;98165.97;6876732;28;20278;-80
2021/07/13 12:25:05;;;;;;;0.60;0.60;;;;;;;23.58;56.63;98197.13;6890007;28;20223;-81
2021/07/13 12:28:27;;;;;;;1.03;0.80;;;;;;;23.49;56.69;98214.63;6891620;28;20279;-82
2021/07/13 12:31:58;;;;;;;1.13;0.87;;;;;;;23.74;56.18;98216.94;6915939;23;20249;-81
2021/07/13 12:35:20;;;;;;;3.07;0.80;;;;;;;23.87;54.70;98225.25;6904024;28;20201;-82
2021/07/13 12:38:41;;;;;;;1.03;0.90;;;;;;;23.46;55.62;98216.06;6903697;28;20215;-83
2021/07/13 12:42:08;;;;;;;0.80;0.80;;;;;;;22.96;57.23;98229.81;6901049;28;20624;-82
2021/07/13 12:45:35;;;;;;;0.70;0.70;;;;;;;23.26;56.58;98230.16;6896632;28;20204;-83
2021/07/13 12:48:57;;;;;;;0.53;0.53;;;;;;;23.59;53.89;98245.53;6896458;28;20204;-83
2021/07/13 12:52:19;;;;;;;0.90;0.90;;;;;;;23.02;56.50;98195.59;6895271;28;20230;-82
2021/07/13 12:55:41;;;;;;;0.80;0.80;;;;;;;23.63;54.06;98224.56;6895731;28;20208;-83
2021/07/13 12:59:08;;;;;;;0.53;0.53;;;;;;;23.68;54.00;98245.66;6895078;28;20205;-83
2021/07/13 13:02:30;;;;;;;1.97;1.00;;;;;;;23.68;54.57;98242.91;6894641;28;20231;-83
2021/07/13 13:05:56;;;;;;;0.80;0.80;;;;;;;23.77;54.37;98214.38;6895553;28;20211;-82
2021/07/13 13:09:18;;;;;;;0.80;0.80;;;;;;;24.11;53.03;98241.56;6894814;28;20208;-82
2021/07/13 13:12:50;;;;;;;0.80;0.80;;;;;;;23.58;55.20;98234.81;6896079;28;20241;-82
2021/07/13 13:16:20;;;;;;;0.73;0.60;;;;;;;24.40;53.11;98229.13;6895347;28;20205;-82
2021/07/13 13:19:42;;;;;;;0.73;0.70;;;;;;;24.64;54.22;98248.19;6894654;28;20230;-83
2021/07/13 13:23:09;;;;;;;2.13;1.10;;;;;;;24.90;52.25;98255.59;6898143;23;20241;-83
2021/07/13 13:26:31;;;;;;;1.20;1.10;;;;;;;24.04;52.70;98246.66;6869380;28;20664;-81
2021/07/13 13:29:53;;;;;;;6.50;1.80;;;;;;;24.16;53.56;98231.28;6867264;28;20210;-82
2021/07/13 13:33:17;;;;;;;2.10;1.00;;;;;;;24.82;52.03;98214.97;6872282;28;20238;-82
2021/07/13 13:36:42;;;;;;;0.63;0.63;;;;;;;24.96;51.24;98215.72;6873341;28;20677;-82
2021/07/13 13:40:05;;;;;;;1.10;1.00;;;;;;;24.68;50.73;98203.19;6872301;28;20227;-82
2021/07/13 13:43:29;;;;;;;4.23;1.20;;;;;;;24.66;52.62;98240.44;6873212;28;20236;-82
2021/07/13 13:46:51;;;;;;;0.60;0.60;;;;;;;24.25;51.34;98199.13;6873192;28;20220;-82
2021/07/13 13:50:14;;;;;;;4.00;1.20;;;;;;;24.16;52.91;98249.72;6872926;28;20207;-82
2021/07/13 13:53:36;;;;;;;1.57;1.13;;;;;;;23.89;53.97;98263.50;6846682;28;20201;-82
2021/07/13 13:56:58;;;;;;;0.87;0.87;;;;;;;24.39;52.38;98257.81;6845018;29;20222;-82
2021/07/13 14:00:21;;;;;;;1.20;1.20;;;;;;;24.15;54.63;98254.44;6845565;28;20219;-82
2021/07/13 14:03:43;;;;;;;0.87;0.87;;;;;;;24.91;52.66;98226.91;6846191;29;20232;-82
2021/07/13 14:07:06;;;;;;;1.83;1.13;;;;;;;24.77;52.01;98214.28;6844986;29;20217;-82
2021/07/13 14:10:27;;;;;;;1.93;1.13;;;;;;;25.10;50.95;98246.03;6845145;28;20202;-82
2021/07/13 14:13:49;;;;;;;0.87;0.87;;;;;;;24.49;51.38;98232.75;6845680;29;20225;-83
2021/07/13 14:17:11;;;;;;;1.33;1.10;;;;;;;24.51;51.21;98202.97;6846555;29;20214;-83
2021/07/13 14:20:33;;;;;;;0.93;0.93;;;;;;;24.85;50.75;98239.19;6846323;28;20212;-82
2021/07/13 14:23:56;;;;;;;1.80;0.90;;;;;;;24.57;50.49;98245.88;6846169;29;20582;-82
2021/07/13 14:27:18;;;;;;;1.00;1.00;;;;;;;24.65;50.53;98260.88;6845160;29;20205;-83
2021/07/13 14:30:39;;;;;;;0.93;0.93;;;;;;;25.19;48.96;98227.63;6844615;28;20228;-82
2021/07/13 14:34:01;;;;;;;1.00;1.00;;;;;;;25.40;48.11;98235.09;6845081;29;20575;-82
2021/07/13 14:37:23;;;;;;;2.30;1.10;;;;;;;24.97;49.55;98244.97;6845929;29;20219;-82
2021/07/13 14:40:46;;;;;;;1.30;1.20;;;;;;;24.46;49.31;98249.94;6844403;28;20238;-82
2021/07/13 14:44:07;;;;;;;3.00;2.80;;;;;;;24.41;48.91;98247.28;6844085;28;20215;-82
2021/07/13 14:47:31;;;;;;;1.23;1.13;;;;;;;24.23;48.67;98225.34;6843418;29;20224;-82
2021/07/13 14:50:53;;;;;;;1.47;1.10;;;;;;;24.51;48.45;98241.56;6843132;28;20239;-82
2021/07/13 14:54:15;;;;;;;1.40;1.30;;;;;;;24.88;47.64;98224.75;6844012;29;20213;-82
2021/07/13 14:57:38;;;;;;;2.23;2.03;;;;;;;25.20;45.78;98221.75;6844509;29;20210;-82
2021/07/13 15:01:00;;;;;;;1.00;1.00;;;;;;;24.81;47.04;98216.09;6843338;28;20645;-82
2021/07/13 15:04:21;;;;;;;2.70;2.10;;;;;;;24.66;48.16;98221.94;6843920;29;20214;-82
2021/07/13 15:07:43;;;;;;;2.27;1.27;;;;;;;24.64;48.63;98199.41;6845423;29;20236;-82
2021/07/13 15:11:05;;;;;;;0.73;0.73;;;;;;;24.19;47.63;98120.44;6843753;28;20235;-82
2021/07/13 15:14:27;;;;;;;1.30;1.20;;;;;;;24.89;47.56;98198.00;6844913;29;20220;-82
2021/07/13 15:17:50;;;;;;;1.33;1.33;;;;;;;25.13;46.41;98157.94;6844478;29;20223;-82
2021/07/13 15:21:12;;;;;;;1.53;1.33;;;;;;;24.59;47.72;98111.28;6843936;28;20236;-82
2021/07/13 15:24:33;;;;;;;1.43;1.33;;;;;;;24.44;48.97;98179.72;6844004;29;20206;-82
2021/07/13 15:27:55;;;;;;;1.63;1.20;;;;;;;23.97;52.19;98210.44;6843700;29;20213;-81
2021/07/13 15:31:19;;;;;;;1.40;1.10;;;;;;;23.95;52.78;98204.44;6841860;28;20235;-81
2021/07/13 15:34:40;;;;;;;1.00;1.00;;;;;;;24.06;52.29;98195.66;6841083;29;20696;-82
2021/07/13 15:38:02;;;;;;;1.10;1.07;;;;;;;23.40;53.32;98217.25;6840349;29;20204;-82
2021/07/13 15:41:26;;;;;;;2.20;1.27;;;;;;;23.22;53.22;98204.38;6840924;28;20240;-82
2021/07/13 15:44:47;;;;;;;1.37;1.10;;;;;;;23.37;53.90;98239.06;6842314;29;20211;-81
2021/07/13 15:48:10;;;;;;;2.13;1.30;;;;;;;23.28;53.53;98232.59;6842592;28;20209;-82
2021/07/13 15:51:34;;;;;;;1.10;1.10;;;;;;;23.45;53.65;98236.44;6841925;28;20319;-81
2021/07/13 15:54:55;;;;;;;1.33;1.27;;;;;;;23.39;53.53;98226.66;6841596;28;20686;-82
2021/07/13 15:58:17;;;;;;;1.53;1.10;;;;;;;23.30;52.66;98197.38;6842139;29;20218;-82
2021/07/13 16:01:39;;;;;;;1.80;1.40;;;;;;;23.75;52.41;98210.28;6842416;28;20244;-82
2021/07/13 16:05:02;;;;;;;1.87;1.30;;;;;;;24.10;51.98;98228.91;6842224;29;20206;-81
2021/07/13 16:08:24;;;;;;;1.20;1.20;;;;;;;23.45;52.01;98230.94;6841370;29;20238;-81
2021/07/13 16:11:46;;;;;;;1.63;1.20;;;;;;;23.30;52.81;98227.63;6842646;28;20227;-81
2021/07/13 16:15:09;;;;;;;1.40;1.30;;;;;;;23.05;53.36;98206.00;6845115;28;20214;-81
2021/07/13 16:18:31;;;;;;;1.63;1.30;;;;;;;23.16;53.37;98182.72;6840688;29;20245;-82
2021/07/13 16:21:54;;;;;;;1.87;1.30;;;;;;;23.50;52.02;98200.59;6841684;28;20235;-82
2021/07/13 16:25:15;;;;;;;2.03;1.23;;;;;;;23.15;53.62;98233.34;6841933;29;20211;-82
2021/07/13 16:28:37;;;;;;;1.30;1.20;;;;;;;23.70;51.51;98251.69;6841774;29;20591;-82
2021/07/13 16:31:59;;;;;;;1.33;1.17;;;;;;;23.40;52.08;98257.72;6842310;28;20234;-81
2021/07/13 16:35:22;;;;;;;1.27;1.27;;;;;;;22.84;53.08;98245.94;6840656;28;20665;-82
2021/07/13 16:38:46;;;;;;;1.03;1.03;;;;;;;23.17;53.01;98229.22;6865346;28;20579;-82
2021/07/13 16:42:08;;;;;;;2.63;1.27;;;;;;;23.72;51.44;98243.94;6866076;28;20655;-82
2021/07/13 16:45:30;;;;;;;1.10;1.10;;;;;;;23.38;50.68;98221.44;6865693;28;20947;-81
2021/07/13 16:48:52;;;;;;;1.10;0.90;;;;;;;23.65;51.36;98227.03;6862058;28;20224;-81
2021/07/13 16:52:13;;;;;;;1.50;1.40;;;;;;;23.39;51.36;98204.63;6841463;29;20228;-82
2021/07/13 16:55:37;;;;;;;0.93;0.93;;;;;;;23.49;51.24;98201.69;6851492;28;20574;-83
2021/07/13 16:58:59;;;;;;;2.83;1.17;;;;;;;24.17;49.85;98210.88;6852213;28;20553;-81
2021/07/13 17:02:20;;;;;;;1.40;1.30;;;;;;;24.03;50.94;98196.28;6868323;28;20606;-82
2021/07/13 17:05:42;;;;;;;1.80;1.37;;;;;;;23.73;50.58;98194.06;6867677;28;20213;-81
2021/07/13 17:09:04;;;;;;;1.97;1.30;;;;;;;24.60;48.61;98181.84;6870139;28;20215;-82
2021/07/13 17:12:27;;;;;;;1.23;1.03;;;;;;;24.80;48.27;98200.69;6846385;28;20219;-82
2021/07/13 17:15:48;;;;;;;1.10;1.10;;;;;;;24.51;48.14;98180.91;6846564;29;20217;-82
2021/07/13 17:19:10;;;;;;;1.70;1.47;;;;;;;24.75;49.42;98175.97;6845329;28;20214;-81
2021/07/13 17:22:33;;;;;;;3.43;1.50;;;;;;;24.65;47.45;98202.97;6846396;28;20233;-82
2021/07/13 17:25:55;;;;;;;1.50;1.40;;;;;;;24.95;47.38;98199.50;6879191;28;20205;-82
2021/07/13 17:29:18;;;;;;;1.57;1.30;;;;;;;24.60;48.82;98203.88;6872634;28;20201;-82
2021/07/13 17:32:40;;;;;;;1.90;1.60;;;;;;;24.46;48.47;98211.34;6872926;28;20228;-82
2021/07/13 17:36:01;;;;;;;1.20;1.20;;;;;;;23.34;50.65;98201.97;6867242;28;20201;-81
2021/07/13 17:39:24;;;;;;;2.23;1.43;;;;;;;23.90;50.47;98221.88;6872071;28;20569;-81
2021/07/13 17:42:46;;;;;;;1.30;1.20;;;;;;;24.32;48.67;98223.50;6872851;28;20231;-81
2021/07/13 17:46:09;;;;;;;1.40;1.27;;;;;;;24.33;48.54;98197.59;6864389;28;20668;-84
2021/07/13 17:49:31;;;;;;;2.23;1.53;;;;;;;24.48;48.00;98252.38;6872492;28;20213;-83
2021/07/13 17:52:52;;;;;;;2.67;1.43;;;;;;;24.35;49.76;98266.97;6872793;28;20236;-84
2021/07/13 17:56:14;;;;;;;1.00;1.00;;;;;;;24.72;48.70;98286.09;6859716;28;20211;-81
2021/07/13 17:59:35;;;;;;;1.30;1.20;;;;;;;23.98;50.17;98247.88;6845058;29;20206;-82
2021/07/13 18:03:00;;;;;;;1.40;1.40;;;;;;;24.72;49.09;98281.38;6844894;29;20236;-82
2021/07/13 18:06:21;;;;;;;3.77;1.53;;;;;;;24.75;48.94;98271.66;6846213;29;20275;-83
2021/07/13 18:09:43;;;;;;;1.90;1.57;;;;;;;24.49;49.11;98276.06;6866192;28;20684;-81
2021/07/13 18:13:06;;;;;;;2.23;1.60;;;;;;;24.65;50.05;98278.22;6871731;28;20221;-81
2021/07/13 18:16:28;;;;;;;3.87;1.50;;;;;;;24.83;48.61;98263.47;6863779;28;20230;-82
2021/07/13 18:19:51;;;;;;;2.93;1.50;;;;;;;25.27;47.80;98260.00;6850591;28;20594;-81
2021/07/13 18:23:13;;;;;;;2.50;1.70;;;;;;;24.92;49.31;98266.31;6844445;29;20239;-80
2021/07/13 18:26:34;;;;;;;1.40;1.30;;;;;;;24.62;49.63;98284.38;6857525;28;20208;-80
2021/07/13 18:29:56;;;;;;;1.40;1.30;;;;;;;24.61;50.79;98285.47;6871777;28;20218;-81
2021/07/13 18:33:18;;;;;;;1.67;1.40;;;;;;;24.50;50.48;98283.22;6872184;28;20229;-80
2021/07/13 18:36:41;;;;;;;1.50;1.40;;;;;;;24.16;51.96;98297.41;6869827;28;20211;-81
2021/07/13 18:40:04;;;;;;;1.87;1.40;;;;;;;24.23;51.39;98297.81;6854958;28;20210;-81
2021/07/13 18:43:25;;;;;;;1.80;1.70;;;;;;;24.33;51.32;98281.06;6870487;28;20233;-82
2021/07/13 18:46:47;;;;;;;1.40;1.30;;;;;;;24.17;52.25;98293.50;6878968;28;20210;-82
2021/07/13 18:50:10;;;;;;;2.30;1.47;;;;;;;24.17;52.03;98282.50;6899142;28;20745;-83
2021/07/13 18:53:33;;;;;;;8.60;1.53;;;;;;;24.25;51.49;98287.28;6897956;28;20229;-82
2021/07/13 18:56:55;;;;;;;3.60;1.23;;;;;;;23.90;52.12;98284.41;6898169;28;20221;-81
2021/07/13 19:00:17;;;;;;;1.50;1.40;;;;;;;23.81;53.59;98286.16;6896926;28;20259;-81
2021/07/13 19:03:39;;;;;;;1.63;1.53;;;;;;;23.51;54.74;98284.78;6877539;28;20259;-80
2021/07/13 19:07:00;;;;;;;1.40;1.30;;;;;;;23.65;54.18;98298.59;6869656;28;20209;-81
2021/07/13 19:10:25;;;;;;;3.07;1.37;;;;;;;23.29;54.93;98283.75;6869637;28;20320;-81
2021/07/13 19:13:46;;;;;;;5.13;1.40;;;;;;;23.34;55.29;98259.75;6870156;28;20215;-81
2021/07/13 19:17:08;;;;;;;2.77;1.63;;;;;;;23.04;56.78;98268.44;6869286;28;20211;-80
2021/07/13 19:20:31;;;;;;;2.30;1.50;;;;;;;23.14;55.35;98267.47;6868964;28;20205;-81
2021/07/13 19:23:55;;;;;;;1.73;1.63;;;;;;;22.74;56.58;98260.63;6869052;28;20225;-80
2021/07/13 19:27:18;;;;;;;2.43;1.77;;;;;;;22.73;55.62;98263.69;6863353;28;20208;-80
2021/07/13 19:30:41;;;;;;;1.50;1.33;;;;;;;22.49;56.46;98233.47;6843994;28;21031;-81